sensor_id;sensor_type;location;lat;lon;timestamp;P1;durP1;ratioP1;P2;durP2;ratioP2
56911;SDS011;42800;53.928;27.662;2023-08-31T00:00:50;9.10;;;6.22;;
56911;SDS011;42800;53.928;27.662;2023-08-31T00:03:16;9.70;;;7.40;;
56911;SDS011;42800;53.928;27.662;2023-08-31T00:05:43;18.50;;;7.05;;
56911;SDS011;42800;53.928;27.662;2023-08-31T00:08:09;8.23;;;6.38;;
56911;SDS011;42800;53.928;27.662;2023-08-31T00:10:37;10.60;;;5.97;;
56911;SDS011;42800;53.928;27.662;2023-08-31T00:13:04;13.07;;;10.25;;
56911;SDS011;42800;53.928;27.662;2023-08-31T00:15:31;9.80;;;6.38;;
56911;SDS011;42800;53.928;27.662;2023-08-31T00:18:00;11.43;;;7.10;;
56911;SDS011;42800;53.928;27.662;2023-08-31T00:20:26;12.55;;;6.13;;
56911;SDS011;42800;53.928;27.662;2023-08-31T00:22:52;13.30;;;11.10;;
56911;SDS011;42800;53.928;27.662;2023-08-31T00:25:18;11.15;;;5.72;;
56911;SDS011;42800;53.928;27.662;2023-08-31T00:27:44;13.68;;;9.70;;
56911;SDS011;42800;53.928;27.662;2023-08-31T00:30:13;8.80;;;5.88;;
56911;SDS011;42800;53.928;27.662;2023-08-31T00:32:39;9.30;;;5.95;;
56911;SDS011;42800;53.928;27.662;2023-08-31T00:35:07;8.82;;;6.60;;
56911;SDS011;42800;53.928;27.662;2023-08-31T00:37:33;10.20;;;7.43;;
56911;SDS011;42800;53.928;27.662;2023-08-31T00:40:00;11.30;;;6.55;;
56911;SDS011;42800;53.928;27.662;2023-08-31T00:42:26;15.18;;;11.77;;
56911;SDS011;42800;53.928;27.662;2023-08-31T00:44:54;12.00;;;6.53;;
56911;SDS011;42800;53.928;27.662;2023-08-31T00:47:21;9.40;;;6.43;;
56911;SDS011;42800;53.928;27.662;2023-08-31T00:49:47;9.85;;;6.35;;
56911;SDS011;42800;53.928;27.662;2023-08-31T00:52:14;11.73;;;10.07;;
56911;SDS011;42800;53.928;27.662;2023-08-31T00:54:40;9.63;;;6.18;;
56911;SDS011;42800;53.928;27.662;2023-08-31T00:57:07;11.98;;;7.22;;
56911;SDS011;42800;53.928;27.662;2023-08-31T00:59:33;9.02;;;6.00;;
56911;SDS011;42800;53.928;27.662;2023-08-31T01:02:01;18.42;;;7.85;;
56911;SDS011;42800;53.928;27.662;2023-08-31T01:04:33;11.13;;;10.02;;
56911;SDS011;42800;53.928;27.662;2023-08-31T01:07:09;8.48;;;6.78;;
56911;SDS011;42800;53.928;27.662;2023-08-31T01:09:47;11.45;;;6.93;;
56911;SDS011;42800;53.928;27.662;2023-08-31T01:12:21;15.82;;;7.82;;
56911;SDS011;42800;53.928;27.662;2023-08-31T01:14:56;12.38;;;7.25;;
56911;SDS011;42800;53.928;27.662;2023-08-31T01:17:25;13.10;;;7.68;;
56911;SDS011;42800;53.928;27.662;2023-08-31T01:19:54;12.45;;;10.73;;
56911;SDS011;42800;53.928;27.662;2023-08-31T01:22:27;12.23;;;7.03;;
56911;SDS011;42800;53.928;27.662;2023-08-31T01:24:56;21.80;;;13.93;;
56911;SDS011;42800;53.928;27.662;2023-08-31T01:27:23;15.23;;;7.97;;
56911;SDS011;42800;53.928;27.662;2023-08-31T01:29:50;7.72;;;5.68;;
56911;SDS011;42800;53.928;27.662;2023-08-31T01:32:16;14.80;;;7.60;;
56911;SDS011;42800;53.928;27.662;2023-08-31T01:34:42;16.05;;;6.93;;
56911;SDS011;42800;53.928;27.662;2023-08-31T01:37:10;12.88;;;6.82;;
56911;SDS011;42800;53.928;27.662;2023-08-31T01:39:44;10.27;;;7.22;;
56911;SDS011;42800;53.928;27.662;2023-08-31T01:42:15;12.25;;;9.32;;
56911;SDS011;42800;53.928;27.662;2023-08-31T01:44:41;14.80;;;8.10;;
56911;SDS011;42800;53.928;27.662;2023-08-31T01:47:10;11.70;;;6.85;;
56911;SDS011;42800;53.928;27.662;2023-08-31T01:49:38;9.88;;;6.75;;
56911;SDS011;42800;53.928;27.662;2023-08-31T01:52:05;12.80;;;10.52;;
56911;SDS011;42800;53.928;27.662;2023-08-31T01:54:32;15.85;;;6.53;;
56911;SDS011;42800;53.928;27.662;2023-08-31T01:56:59;14.38;;;7.40;;
56911;SDS011;42800;53.928;27.662;2023-08-31T01:59:26;14.95;;;7.28;;
56911;SDS011;42800;53.928;27.662;2023-08-31T02:01:52;12.20;;;8.80;;
56911;SDS011;42800;53.928;27.662;2023-08-31T02:04:18;13.25;;;7.70;;
56911;SDS011;42800;53.928;27.662;2023-08-31T02:06:44;24.98;;;8.60;;
56911;SDS011;42800;53.928;27.662;2023-08-31T02:09:10;10.52;;;6.75;;
56911;SDS011;42800;53.928;27.662;2023-08-31T02:11:36;12.75;;;6.38;;
56911;SDS011;42800;53.928;27.662;2023-08-31T02:14:03;12.73;;;9.88;;
56911;SDS011;42800;53.928;27.662;2023-08-31T02:16:30;15.82;;;6.72;;
56911;SDS011;42800;53.928;27.662;2023-08-31T02:18:56;9.80;;;6.28;;
56911;SDS011;42800;53.928;27.662;2023-08-31T02:21:22;19.10;;;8.35;;
56911;SDS011;42800;53.928;27.662;2023-08-31T02:23:48;10.82;;;7.13;;
56911;SDS011;42800;53.928;27.662;2023-08-31T02:26:14;17.08;;;7.75;;
56911;SDS011;42800;53.928;27.662;2023-08-31T02:28:40;16.20;;;8.27;;
56911;SDS011;42800;53.928;27.662;2023-08-31T02:31:06;15.18;;;6.95;;
56911;SDS011;42800;53.928;27.662;2023-08-31T02:33:33;15.07;;;9.38;;
56911;SDS011;42800;53.928;27.662;2023-08-31T02:35:58;13.75;;;6.90;;
56911;SDS011;42800;53.928;27.662;2023-08-31T02:38:24;13.27;;;6.82;;
56911;SDS011;42800;53.928;27.662;2023-08-31T02:40:51;12.30;;;9.50;;
56911;SDS011;42800;53.928;27.662;2023-08-31T02:43:17;12.30;;;7.07;;
56911;SDS011;42800;53.928;27.662;2023-08-31T02:45:43;10.48;;;8.98;;
56911;SDS011;42800;53.928;27.662;2023-08-31T02:48:09;11.40;;;6.45;;
56911;SDS011;42800;53.928;27.662;2023-08-31T02:50:36;10.70;;;8.73;;
56911;SDS011;42800;53.928;27.662;2023-08-31T02:53:03;11.35;;;6.30;;
56911;SDS011;42800;53.928;27.662;2023-08-31T02:55:31;10.45;;;5.97;;
56911;SDS011;42800;53.928;27.662;2023-08-31T02:57:57;12.98;;;7.32;;
56911;SDS011;42800;53.928;27.662;2023-08-31T03:00:23;11.48;;;6.97;;
56911;SDS011;42800;53.928;27.662;2023-08-31T03:02:49;12.38;;;6.47;;
56911;SDS011;42800;53.928;27.662;2023-08-31T03:05:17;7.88;;;5.82;;
56911;SDS011;42800;53.928;27.662;2023-08-31T03:07:43;13.18;;;7.07;;
56911;SDS011;42800;53.928;27.662;2023-08-31T03:10:10;14.52;;;7.25;;
56911;SDS011;42800;53.928;27.662;2023-08-31T03:12:37;11.68;;;7.25;;
56911;SDS011;42800;53.928;27.662;2023-08-31T03:15:04;13.80;;;7.65;;
56911;SDS011;42800;53.928;27.662;2023-08-31T03:17:31;19.33;;;7.40;;
56911;SDS011;42800;53.928;27.662;2023-08-31T03:19:57;10.75;;;9.45;;
56911;SDS011;42800;53.928;27.662;2023-08-31T03:22:23;10.68;;;6.97;;
56911;SDS011;42800;53.928;27.662;2023-08-31T03:24:49;18.15;;;8.23;;
56911;SDS011;42800;53.928;27.662;2023-08-31T03:27:15;13.80;;;6.70;;
56911;SDS011;42800;53.928;27.662;2023-08-31T03:29:41;13.73;;;7.15;;
56911;SDS011;42800;53.928;27.662;2023-08-31T03:32:07;15.35;;;10.13;;
56911;SDS011;42800;53.928;27.662;2023-08-31T03:34:33;14.82;;;7.47;;
56911;SDS011;42800;53.928;27.662;2023-08-31T03:36:59;11.73;;;6.72;;
56911;SDS011;42800;53.928;27.662;2023-08-31T03:39:25;13.85;;;6.45;;
56911;SDS011;42800;53.928;27.662;2023-08-31T03:41:52;8.13;;;5.38;;
56911;SDS011;42800;53.928;27.662;2023-08-31T03:44:18;11.68;;;6.20;;
56911;SDS011;42800;53.928;27.662;2023-08-31T03:46:45;9.63;;;6.97;;
56911;SDS011;42800;53.928;27.662;2023-08-31T03:49:11;11.20;;;6.00;;
56911;SDS011;42800;53.928;27.662;2023-08-31T03:51:37;12.27;;;6.03;;
56911;SDS011;42800;53.928;27.662;2023-08-31T03:54:03;16.25;;;9.82;;
56911;SDS011;42800;53.928;27.662;2023-08-31T03:56:29;12.55;;;6.00;;
56911;SDS011;42800;53.928;27.662;2023-08-31T03:58:55;13.77;;;7.35;;
56911;SDS011;42800;53.928;27.662;2023-08-31T04:01:21;14.50;;;6.72;;
56911;SDS011;42800;53.928;27.662;2023-08-31T04:03:48;18.00;;;8.18;;
56911;SDS011;42800;53.928;27.662;2023-08-31T04:06:14;13.43;;;9.25;;
56911;SDS011;42800;53.928;27.662;2023-08-31T04:08:40;10.90;;;7.50;;
56911;SDS011;42800;53.928;27.662;2023-08-31T04:11:06;11.82;;;6.93;;
56911;SDS011;42800;53.928;27.662;2023-08-31T04:13:32;13.20;;;8.07;;
56911;SDS011;42800;53.928;27.662;2023-08-31T04:15:58;13.77;;;7.93;;
56911;SDS011;42800;53.928;27.662;2023-08-31T04:18:24;18.73;;;11.32;;
56911;SDS011;42800;53.928;27.662;2023-08-31T04:20:51;14.05;;;7.45;;
56911;SDS011;42800;53.928;27.662;2023-08-31T04:23:18;13.30;;;11.27;;
56911;SDS011;42800;53.928;27.662;2023-08-31T04:25:45;12.57;;;7.95;;
56911;SDS011;42800;53.928;27.662;2023-08-31T04:28:11;10.43;;;6.85;;
56911;SDS011;42800;53.928;27.662;2023-08-31T04:30:37;8.68;;;5.95;;
56911;SDS011;42800;53.928;27.662;2023-08-31T04:33:05;15.32;;;6.93;;
56911;SDS011;42800;53.928;27.662;2023-08-31T04:35:32;10.95;;;7.28;;
56911;SDS011;42800;53.928;27.662;2023-08-31T04:37:58;9.73;;;6.90;;
56911;SDS011;42800;53.928;27.662;2023-08-31T04:40:24;14.20;;;7.40;;
56911;SDS011;42800;53.928;27.662;2023-08-31T04:42:50;9.80;;;7.10;;
56911;SDS011;42800;53.928;27.662;2023-08-31T04:45:16;11.15;;;7.60;;
56911;SDS011;42800;53.928;27.662;2023-08-31T04:47:42;10.52;;;7.40;;
56911;SDS011;42800;53.928;27.662;2023-08-31T04:50:09;8.88;;;6.32;;
56911;SDS011;42800;53.928;27.662;2023-08-31T04:52:35;12.30;;;6.95;;
56911;SDS011;42800;53.928;27.662;2023-08-31T04:55:01;10.18;;;6.22;;
56911;SDS011;42800;53.928;27.662;2023-08-31T04:57:28;14.65;;;6.35;;
56911;SDS011;42800;53.928;27.662;2023-08-31T04:59:54;10.13;;;5.90;;
56911;SDS011;42800;53.928;27.662;2023-08-31T05:02:20;12.68;;;6.97;;
56911;SDS011;42800;53.928;27.662;2023-08-31T05:04:46;6.03;;;4.28;;
56911;SDS011;42800;53.928;27.662;2023-08-31T05:07:13;13.85;;;7.65;;
56911;SDS011;42800;53.928;27.662;2023-08-31T05:09:39;16.88;;;11.52;;
56911;SDS011;42800;53.928;27.662;2023-08-31T05:12:05;14.82;;;8.88;;
56911;SDS011;42800;53.928;27.662;2023-08-31T05:14:32;15.32;;;7.93;;
56911;SDS011;42800;53.928;27.662;2023-08-31T05:17:00;11.52;;;7.45;;
56911;SDS011;42800;53.928;27.662;2023-08-31T05:19:26;11.85;;;7.95;;
56911;SDS011;42800;53.928;27.662;2023-08-31T05:21:52;11.10;;;6.93;;
56911;SDS011;42800;53.928;27.662;2023-08-31T05:24:18;12.63;;;7.05;;
56911;SDS011;42800;53.928;27.662;2023-08-31T05:26:44;8.05;;;6.28;;
56911;SDS011;42800;53.928;27.662;2023-08-31T05:29:10;18.45;;;10.75;;
56911;SDS011;42800;53.928;27.662;2023-08-31T05:31:36;12.40;;;7.55;;
56911;SDS011;42800;53.928;27.662;2023-08-31T05:34:02;13.00;;;6.80;;
56911;SDS011;42800;53.928;27.662;2023-08-31T05:36:28;12.38;;;6.57;;
56911;SDS011;42800;53.928;27.662;2023-08-31T05:38:54;13.82;;;9.18;;
56911;SDS011;42800;53.928;27.662;2023-08-31T05:41:21;15.45;;;9.02;;
56911;SDS011;42800;53.928;27.662;2023-08-31T05:43:46;11.13;;;7.68;;
56911;SDS011;42800;53.928;27.662;2023-08-31T05:46:12;10.52;;;6.90;;
56911;SDS011;42800;53.928;27.662;2023-08-31T05:48:38;16.40;;;7.57;;
56911;SDS011;42800;53.928;27.662;2023-08-31T05:51:04;14.10;;;6.88;;
56911;SDS011;42800;53.928;27.662;2023-08-31T05:53:30;12.32;;;6.35;;
56911;SDS011;42800;53.928;27.662;2023-08-31T05:55:56;13.73;;;5.70;;
56911;SDS011;42800;53.928;27.662;2023-08-31T05:58:29;11.02;;;6.78;;
56911;SDS011;42800;53.928;27.662;2023-08-31T06:00:55;9.45;;;6.30;;
56911;SDS011;42800;53.928;27.662;2023-08-31T06:03:21;10.13;;;6.40;;
56911;SDS011;42800;53.928;27.662;2023-08-31T06:05:47;9.20;;;6.00;;
56911;SDS011;42800;53.928;27.662;2023-08-31T06:08:13;10.95;;;8.60;;
56911;SDS011;42800;53.928;27.662;2023-08-31T06:10:39;14.20;;;7.13;;
56911;SDS011;42800;53.928;27.662;2023-08-31T06:13:05;13.02;;;6.85;;
56911;SDS011;42800;53.928;27.662;2023-08-31T06:15:31;15.77;;;7.40;;
56911;SDS011;42800;53.928;27.662;2023-08-31T06:17:57;14.02;;;8.57;;
56911;SDS011;42800;53.928;27.662;2023-08-31T06:20:24;10.00;;;7.32;;
56911;SDS011;42800;53.928;27.662;2023-08-31T06:22:50;13.13;;;8.32;;
56911;SDS011;42800;53.928;27.662;2023-08-31T06:25:16;15.32;;;7.22;;
56911;SDS011;42800;53.928;27.662;2023-08-31T06:27:43;13.65;;;7.35;;
56911;SDS011;42800;53.928;27.662;2023-08-31T06:30:10;15.23;;;7.82;;
56911;SDS011;42800;53.928;27.662;2023-08-31T06:32:41;13.02;;;7.05;;
56911;SDS011;42800;53.928;27.662;2023-08-31T06:35:08;12.30;;;7.60;;
56911;SDS011;42800;53.928;27.662;2023-08-31T06:37:34;14.32;;;7.38;;
56911;SDS011;42800;53.928;27.662;2023-08-31T06:40:00;10.23;;;6.88;;
56911;SDS011;42800;53.928;27.662;2023-08-31T06:42:26;10.20;;;6.93;;
56911;SDS011;42800;53.928;27.662;2023-08-31T06:44:52;20.02;;;8.57;;
56911;SDS011;42800;53.928;27.662;2023-08-31T06:47:18;13.68;;;7.95;;
56911;SDS011;42800;53.928;27.662;2023-08-31T06:49:46;14.73;;;7.85;;
56911;SDS011;42800;53.928;27.662;2023-08-31T06:52:12;10.77;;;7.10;;
56911;SDS011;42800;53.928;27.662;2023-08-31T06:54:37;11.65;;;7.38;;
56911;SDS011;42800;53.928;27.662;2023-08-31T06:57:03;9.90;;;8.02;;
56911;SDS011;42800;53.928;27.662;2023-08-31T06:59:30;12.43;;;7.72;;
56911;SDS011;42800;53.928;27.662;2023-08-31T07:01:56;12.07;;;6.60;;
56911;SDS011;42800;53.928;27.662;2023-08-31T07:04:22;9.40;;;6.07;;
56911;SDS011;42800;53.928;27.662;2023-08-31T07:06:48;17.50;;;8.43;;
56911;SDS011;42800;53.928;27.662;2023-08-31T07:09:14;9.88;;;6.65;;
56911;SDS011;42800;53.928;27.662;2023-08-31T07:11:40;12.50;;;6.90;;
56911;SDS011;42800;53.928;27.662;2023-08-31T07:14:07;9.45;;;6.00;;
56911;SDS011;42800;53.928;27.662;2023-08-31T07:16:33;10.77;;;6.10;;
56911;SDS011;42800;53.928;27.662;2023-08-31T07:18:58;10.48;;;6.25;;
56911;SDS011;42800;53.928;27.662;2023-08-31T07:21:24;9.63;;;5.88;;
56911;SDS011;42800;53.928;27.662;2023-08-31T07:23:52;8.80;;;5.82;;
56911;SDS011;42800;53.928;27.662;2023-08-31T07:26:18;6.30;;;5.43;;
56911;SDS011;42800;53.928;27.662;2023-08-31T07:28:44;10.32;;;7.80;;
56911;SDS011;42800;53.928;27.662;2023-08-31T07:31:10;11.02;;;7.90;;
56911;SDS011;42800;53.928;27.662;2023-08-31T07:33:36;14.60;;;5.65;;
56911;SDS011;42800;53.928;27.662;2023-08-31T07:36:02;8.23;;;4.90;;
56911;SDS011;42800;53.928;27.662;2023-08-31T07:38:29;10.85;;;6.63;;
56911;SDS011;42800;53.928;27.662;2023-08-31T07:40:57;7.82;;;5.18;;
56911;SDS011;42800;53.928;27.662;2023-08-31T07:43:23;11.25;;;7.03;;
56911;SDS011;42800;53.928;27.662;2023-08-31T07:45:50;11.73;;;7.40;;
56911;SDS011;42800;53.928;27.662;2023-08-31T07:48:16;11.60;;;7.70;;
56911;SDS011;42800;53.928;27.662;2023-08-31T07:50:42;13.73;;;7.43;;
56911;SDS011;42800;53.928;27.662;2023-08-31T07:53:08;13.35;;;6.18;;
56911;SDS011;42800;53.928;27.662;2023-08-31T07:55:34;8.23;;;7.00;;
56911;SDS011;42800;53.928;27.662;2023-08-31T07:58:01;11.30;;;7.95;;
56911;SDS011;42800;53.928;27.662;2023-08-31T08:00:27;9.07;;;6.40;;
56911;SDS011;42800;53.928;27.662;2023-08-31T08:02:53;7.43;;;4.07;;
56911;SDS011;42800;53.928;27.662;2023-08-31T08:05:19;12.15;;;5.10;;
56911;SDS011;42800;53.928;27.662;2023-08-31T08:07:45;9.32;;;6.10;;
56911;SDS011;42800;53.928;27.662;2023-08-31T08:10:11;6.85;;;5.68;;
56911;SDS011;42800;53.928;27.662;2023-08-31T08:12:37;9.43;;;6.25;;
56911;SDS011;42800;53.928;27.662;2023-08-31T08:15:06;6.85;;;5.20;;
56911;SDS011;42800;53.928;27.662;2023-08-31T08:17:32;7.88;;;5.80;;
56911;SDS011;42800;53.928;27.662;2023-08-31T08:19:58;8.07;;;7.28;;
56911;SDS011;42800;53.928;27.662;2023-08-31T08:22:24;7.78;;;6.78;;
56911;SDS011;42800;53.928;27.662;2023-08-31T08:24:50;9.60;;;6.47;;
56911;SDS011;42800;53.928;27.662;2023-08-31T08:27:16;7.68;;;5.25;;
56911;SDS011;42800;53.928;27.662;2023-08-31T08:29:44;9.20;;;5.07;;
56911;SDS011;42800;53.928;27.662;2023-08-31T08:32:11;8.15;;;5.30;;
56911;SDS011;42800;53.928;27.662;2023-08-31T08:34:37;6.18;;;5.07;;
56911;SDS011;42800;53.928;27.662;2023-08-31T08:37:03;8.82;;;5.78;;
56911;SDS011;42800;53.928;27.662;2023-08-31T08:39:29;6.03;;;4.35;;
56911;SDS011;42800;53.928;27.662;2023-08-31T08:41:55;7.43;;;6.00;;
56911;SDS011;42800;53.928;27.662;2023-08-31T08:44:24;7.85;;;5.07;;
56911;SDS011;42800;53.928;27.662;2023-08-31T08:46:51;5.40;;;4.72;;
56911;SDS011;42800;53.928;27.662;2023-08-31T08:49:17;7.78;;;4.60;;
56911;SDS011;42800;53.928;27.662;2023-08-31T08:51:44;8.27;;;5.07;;
56911;SDS011;42800;53.928;27.662;2023-08-31T08:54:12;7.38;;;4.85;;
56911;SDS011;42800;53.928;27.662;2023-08-31T08:56:38;11.30;;;5.43;;
56911;SDS011;42800;53.928;27.662;2023-08-31T08:59:04;7.10;;;4.78;;
56911;SDS011;42800;53.928;27.662;2023-08-31T09:01:31;6.47;;;5.60;;
56911;SDS011;42800;53.928;27.662;2023-08-31T09:03:57;6.22;;;4.90;;
56911;SDS011;42800;53.928;27.662;2023-08-31T09:06:24;9.65;;;4.68;;
56911;SDS011;42800;53.928;27.662;2023-08-31T09:08:53;8.75;;;4.55;;
56911;SDS011;42800;53.928;27.662;2023-08-31T09:11:20;7.57;;;4.63;;
56911;SDS011;42800;53.928;27.662;2023-08-31T09:13:47;9.65;;;4.68;;
56911;SDS011;42800;53.928;27.662;2023-08-31T09:16:21;10.52;;;4.30;;
56911;SDS011;42800;53.928;27.662;2023-08-31T09:18:50;9.07;;;4.38;;
56911;SDS011;42800;53.928;27.662;2023-08-31T09:21:17;5.75;;;4.55;;
56911;SDS011;42800;53.928;27.662;2023-08-31T09:23:45;13.57;;;7.35;;
56911;SDS011;42800;53.928;27.662;2023-08-31T09:26:13;8.00;;;5.35;;
56911;SDS011;42800;53.928;27.662;2023-08-31T09:28:40;5.68;;;4.47;;
56911;SDS011;42800;53.928;27.662;2023-08-31T09:31:07;8.35;;;4.22;;
56911;SDS011;42800;53.928;27.662;2023-08-31T09:33:34;8.45;;;4.15;;
56911;SDS011;42800;53.928;27.662;2023-08-31T09:36:00;5.45;;;4.03;;
56911;SDS011;42800;53.928;27.662;2023-08-31T09:38:26;9.77;;;4.18;;
56911;SDS011;42800;53.928;27.662;2023-08-31T09:40:53;9.10;;;4.43;;
56911;SDS011;42800;53.928;27.662;2023-08-31T09:43:29;10.15;;;4.55;;
56911;SDS011;42800;53.928;27.662;2023-08-31T09:45:55;6.13;;;3.75;;
56911;SDS011;42800;53.928;27.662;2023-08-31T09:48:21;12.10;;;5.00;;
56911;SDS011;42800;53.928;27.662;2023-08-31T09:50:48;9.88;;;4.50;;
56911;SDS011;42800;53.928;27.662;2023-08-31T09:53:17;11.60;;;5.18;;
56911;SDS011;42800;53.928;27.662;2023-08-31T09:55:46;9.80;;;4.72;;
56911;SDS011;42800;53.928;27.662;2023-08-31T09:58:17;6.05;;;4.32;;
56911;SDS011;42800;53.928;27.662;2023-08-31T10:00:44;6.38;;;3.97;;
56911;SDS011;42800;53.928;27.662;2023-08-31T10:03:11;10.50;;;5.68;;
56911;SDS011;42800;53.928;27.662;2023-08-31T10:05:39;7.35;;;5.78;;
56911;SDS011;42800;53.928;27.662;2023-08-31T10:08:05;5.75;;;3.70;;
56911;SDS011;42800;53.928;27.662;2023-08-31T10:10:32;6.22;;;4.30;;
56911;SDS011;42800;53.928;27.662;2023-08-31T10:13:00;7.32;;;5.10;;
56911;SDS011;42800;53.928;27.662;2023-08-31T10:15:30;6.93;;;4.07;;
56911;SDS011;42800;53.928;27.662;2023-08-31T10:17:59;6.85;;;4.53;;
56911;SDS011;42800;53.928;27.662;2023-08-31T10:20:25;8.05;;;4.45;;
56911;SDS011;42800;53.928;27.662;2023-08-31T10:22:56;7.68;;;4.32;;
56911;SDS011;42800;53.928;27.662;2023-08-31T10:25:22;10.15;;;4.07;;
56911;SDS011;42800;53.928;27.662;2023-08-31T10:27:49;6.57;;;3.80;;
56911;SDS011;42800;53.928;27.662;2023-08-31T10:30:24;6.45;;;4.45;;
56911;SDS011;42800;53.928;27.662;2023-08-31T10:33:05;10.88;;;5.72;;
56911;SDS011;42800;53.928;27.662;2023-08-31T10:35:50;8.32;;;4.47;;
56911;SDS011;42800;53.928;27.662;2023-08-31T10:38:23;9.48;;;4.82;;
56911;SDS011;42800;53.928;27.662;2023-08-31T10:41:00;11.80;;;4.88;;
56911;SDS011;42800;53.928;27.662;2023-08-31T10:43:28;5.28;;;4.57;;
56911;SDS011;42800;53.928;27.662;2023-08-31T10:46:14;10.18;;;6.00;;
56911;SDS011;42800;53.928;27.662;2023-08-31T10:48:51;6.28;;;4.50;;
56911;SDS011;42800;53.928;27.662;2023-08-31T10:51:18;4.85;;;3.60;;
56911;SDS011;42800;53.928;27.662;2023-08-31T10:53:47;7.13;;;3.90;;
56911;SDS011;42800;53.928;27.662;2023-08-31T10:56:15;4.72;;;3.90;;
56911;SDS011;42800;53.928;27.662;2023-08-31T10:58:41;8.57;;;3.75;;
56911;SDS011;42800;53.928;27.662;2023-08-31T11:01:07;7.30;;;5.15;;
56911;SDS011;42800;53.928;27.662;2023-08-31T11:03:38;9.90;;;4.25;;
56911;SDS011;42800;53.928;27.662;2023-08-31T11:06:23;6.47;;;4.55;;
56911;SDS011;42800;53.928;27.662;2023-08-31T11:08:50;7.22;;;4.07;;
56911;SDS011;42800;53.928;27.662;2023-08-31T11:11:19;8.90;;;4.80;;
56911;SDS011;42800;53.928;27.662;2023-08-31T11:13:45;10.20;;;4.93;;
56911;SDS011;42800;53.928;27.662;2023-08-31T11:16:11;6.85;;;4.85;;
56911;SDS011;42800;53.928;27.662;2023-08-31T11:18:37;9.27;;;4.57;;
56911;SDS011;42800;53.928;27.662;2023-08-31T11:21:03;10.07;;;4.30;;
56911;SDS011;42800;53.928;27.662;2023-08-31T11:23:30;7.25;;;4.47;;
56911;SDS011;42800;53.928;27.662;2023-08-31T11:25:56;5.55;;;4.07;;
56911;SDS011;42800;53.928;27.662;2023-08-31T11:28:22;6.55;;;3.97;;
56911;SDS011;42800;53.928;27.662;2023-08-31T11:30:48;8.90;;;4.68;;
56911;SDS011;42800;53.928;27.662;2023-08-31T11:33:15;7.82;;;4.10;;
56911;SDS011;42800;53.928;27.662;2023-08-31T11:35:41;13.10;;;5.63;;
56911;SDS011;42800;53.928;27.662;2023-08-31T11:38:10;5.35;;;3.67;;
56911;SDS011;42800;53.928;27.662;2023-08-31T11:40:36;6.93;;;3.42;;
56911;SDS011;42800;53.928;27.662;2023-08-31T11:43:02;6.18;;;4.30;;
56911;SDS011;42800;53.928;27.662;2023-08-31T11:45:31;8.32;;;4.50;;
56911;SDS011;42800;53.928;27.662;2023-08-31T11:47:57;7.65;;;4.90;;
56911;SDS011;42800;53.928;27.662;2023-08-31T11:50:24;5.30;;;4.18;;
56911;SDS011;42800;53.928;27.662;2023-08-31T11:52:51;6.68;;;4.30;;
56911;SDS011;42800;53.928;27.662;2023-08-31T11:55:19;4.47;;;3.20;;
56911;SDS011;42800;53.928;27.662;2023-08-31T11:57:48;4.15;;;3.22;;
56911;SDS011;42800;53.928;27.662;2023-08-31T12:00:16;9.13;;;4.78;;
56911;SDS011;42800;53.928;27.662;2023-08-31T12:02:42;4.35;;;3.58;;
56911;SDS011;42800;53.928;27.662;2023-08-31T12:05:11;10.75;;;4.53;;
56911;SDS011;42800;53.928;27.662;2023-08-31T12:07:39;5.40;;;4.07;;
56911;SDS011;42800;53.928;27.662;2023-08-31T12:10:06;5.88;;;4.38;;
56911;SDS011;42800;53.928;27.662;2023-08-31T12:12:33;6.15;;;3.60;;
56911;SDS011;42800;53.928;27.662;2023-08-31T12:15:00;6.95;;;4.80;;
56911;SDS011;42800;53.928;27.662;2023-08-31T12:17:28;8.35;;;5.55;;
56911;SDS011;42800;53.928;27.662;2023-08-31T12:20:01;11.35;;;5.78;;
56911;SDS011;42800;53.928;27.662;2023-08-31T12:22:29;13.82;;;5.60;;
56911;SDS011;42800;53.928;27.662;2023-08-31T12:24:55;10.55;;;6.65;;
56911;SDS011;42800;53.928;27.662;2023-08-31T12:27:21;9.63;;;5.20;;
56911;SDS011;42800;53.928;27.662;2023-08-31T12:29:48;7.28;;;5.47;;
56911;SDS011;42800;53.928;27.662;2023-08-31T12:32:15;9.73;;;4.68;;
56911;SDS011;42800;53.928;27.662;2023-08-31T12:34:41;14.90;;;4.60;;
56911;SDS011;42800;53.928;27.662;2023-08-31T12:37:07;5.53;;;4.10;;
56911;SDS011;42800;53.928;27.662;2023-08-31T12:39:33;8.93;;;4.25;;
56911;SDS011;42800;53.928;27.662;2023-08-31T12:42:00;7.25;;;4.15;;
56911;SDS011;42800;53.928;27.662;2023-08-31T12:44:25;4.38;;;3.10;;
56911;SDS011;42800;53.928;27.662;2023-08-31T12:46:52;5.10;;;3.28;;
56911;SDS011;42800;53.928;27.662;2023-08-31T12:49:18;4.78;;;3.28;;
56911;SDS011;42800;53.928;27.662;2023-08-31T12:51:45;5.97;;;4.13;;
56911;SDS011;42800;53.928;27.662;2023-08-31T12:54:11;7.05;;;4.20;;
56911;SDS011;42800;53.928;27.662;2023-08-31T12:56:37;6.57;;;3.67;;
56911;SDS011;42800;53.928;27.662;2023-08-31T12:59:03;6.70;;;2.90;;
56911;SDS011;42800;53.928;27.662;2023-08-31T13:01:30;7.95;;;3.03;;
56911;SDS011;42800;53.928;27.662;2023-08-31T13:03:58;4.38;;;3.28;;
56911;SDS011;42800;53.928;27.662;2023-08-31T13:06:24;3.90;;;2.92;;
56911;SDS011;42800;53.928;27.662;2023-08-31T13:08:51;8.13;;;4.22;;
56911;SDS011;42800;53.928;27.662;2023-08-31T13:11:17;4.32;;;2.70;;
56911;SDS011;42800;53.928;27.662;2023-08-31T13:13:48;7.65;;;2.90;;
56911;SDS011;42800;53.928;27.662;2023-08-31T13:16:16;5.68;;;2.72;;
56911;SDS011;42800;53.928;27.662;2023-08-31T13:18:42;5.22;;;2.85;;
56911;SDS011;42800;53.928;27.662;2023-08-31T13:21:08;6.20;;;2.60;;
56911;SDS011;42800;53.928;27.662;2023-08-31T13:23:34;3.60;;;3.30;;
56911;SDS011;42800;53.928;27.662;2023-08-31T13:26:00;4.70;;;3.10;;
56911;SDS011;42800;53.928;27.662;2023-08-31T13:28:26;5.93;;;3.38;;
56911;SDS011;42800;53.928;27.662;2023-08-31T13:30:55;10.02;;;3.00;;
56911;SDS011;42800;53.928;27.662;2023-08-31T13:33:22;5.38;;;3.15;;
56911;SDS011;42800;53.928;27.662;2023-08-31T13:35:48;7.03;;;4.45;;
56911;SDS011;42800;53.928;27.662;2023-08-31T13:38:14;9.57;;;2.80;;
56911;SDS011;42800;53.928;27.662;2023-08-31T13:40:40;3.90;;;3.03;;
56911;SDS011;42800;53.928;27.662;2023-08-31T13:43:06;5.00;;;3.03;;
56911;SDS011;42800;53.928;27.662;2023-08-31T13:45:32;6.38;;;3.88;;
56911;SDS011;42800;53.928;27.662;2023-08-31T13:47:58;4.38;;;3.17;;
56911;SDS011;42800;53.928;27.662;2023-08-31T13:50:25;9.23;;;3.08;;
56911;SDS011;42800;53.928;27.662;2023-08-31T13:52:51;7.10;;;3.38;;
56911;SDS011;42800;53.928;27.662;2023-08-31T13:55:17;9.52;;;3.50;;
56911;SDS011;42800;53.928;27.662;2023-08-31T13:57:43;8.88;;;4.50;;
56911;SDS011;42800;53.928;27.662;2023-08-31T14:00:10;12.98;;;4.97;;
56911;SDS011;42800;53.928;27.662;2023-08-31T14:02:37;16.48;;;7.75;;
56911;SDS011;42800;53.928;27.662;2023-08-31T14:05:04;8.63;;;5.90;;
56911;SDS011;42800;53.928;27.662;2023-08-31T14:07:31;5.93;;;4.28;;
56911;SDS011;42800;53.928;27.662;2023-08-31T14:09:57;9.48;;;4.93;;
56911;SDS011;42800;53.928;27.662;2023-08-31T14:12:24;9.70;;;5.45;;
56911;SDS011;42800;53.928;27.662;2023-08-31T14:14:50;5.53;;;4.72;;
56911;SDS011;42800;53.928;27.662;2023-08-31T14:17:16;10.10;;;4.53;;
56911;SDS011;42800;53.928;27.662;2023-08-31T14:19:42;4.90;;;4.40;;
56911;SDS011;42800;53.928;27.662;2023-08-31T14:22:08;15.38;;;4.60;;
56911;SDS011;42800;53.928;27.662;2023-08-31T14:24:35;9.57;;;5.10;;
56911;SDS011;42800;53.928;27.662;2023-08-31T14:27:02;8.93;;;4.95;;